Taganrog Yuzhny Airport

Jump to: basic info | weather | comments

Related pages: nearby airports | nearby navaids | notams | map

Basic information (top)

Codes: TGK URRT
Location: lon 47.200001, lat 38.849998, elev 118 ft / 36 m msl
Status: medium_airport

Weather (top)

Current conditions for Rostov-na-Donu Airport 40nm (73km) E (rec'd 2014/12/21 04:30Z):

URRR 210430Z 28002MPS 250V310 1800 BR OVC002 05/05 Q1013 22290041 TEMPO 0300 FG BKN002 RMK QBB070 MAST OBSC

Airport forecast for Rostov-na-Donu Airport 40nm (73km) E (rec'd 2014/12/21 03:00Z):

TAF URRR 210204Z 2103/2203 27005G10MPS 0300 FG BKN002 SCT020CB 530005 
      TEMPO 2103/2109 -SHRA 
      TEMPO 2109/2115 VRB02MPS 2100 -SHRA BR BKN006 SCT020CB 
      TEMPO 2115/2203 32005G10MPS -SHRA

Latest comments (top)

dgs: gsdg [read]

More... (top)

See also NOTAMs and nearby airports and navaids, or visit the Taganrog Yuzhny Airport page at the main OurAirports website..